sensor_id;sensor_type;location;lat;lon;timestamp;P1;durP1;ratioP1;P2;durP2;ratioP2
66595;SDS011;59017;49.252;18.838;2022-08-01T00:01:48;3.40;;;2.60;;
66595;SDS011;59017;49.252;18.838;2022-08-01T00:04:14;4.25;;;2.53;;
66595;SDS011;59017;49.252;18.838;2022-08-01T00:06:39;5.60;;;3.42;;
66595;SDS011;59017;49.252;18.838;2022-08-01T00:09:05;5.32;;;3.35;;
66595;SDS011;59017;49.252;18.838;2022-08-01T00:11:30;5.05;;;3.65;;
66595;SDS011;59017;49.252;18.838;2022-08-01T00:13:56;7.13;;;4.07;;
66595;SDS011;59017;49.252;18.838;2022-08-01T00:16:21;6.03;;;3.78;;
66595;SDS011;59017;49.252;18.838;2022-08-01T00:18:48;6.68;;;3.40;;
66595;SDS011;59017;49.252;18.838;2022-08-01T00:21:16;5.80;;;3.42;;
66595;SDS011;59017;49.252;18.838;2022-08-01T00:23:42;4.60;;;3.70;;
66595;SDS011;59017;49.252;18.838;2022-08-01T00:26:10;5.90;;;3.95;;
66595;SDS011;59017;49.252;18.838;2022-08-01T00:28:36;5.85;;;3.90;;
66595;SDS011;59017;49.252;18.838;2022-08-01T00:31:01;6.70;;;3.95;;
66595;SDS011;59017;49.252;18.838;2022-08-01T00:33:27;7.80;;;3.90;;
66595;SDS011;59017;49.252;18.838;2022-08-01T00:35:52;6.85;;;4.05;;
66595;SDS011;59017;49.252;18.838;2022-08-01T00:38:19;5.68;;;4.15;;
66595;SDS011;59017;49.252;18.838;2022-08-01T00:40:44;9.27;;;5.03;;
66595;SDS011;59017;49.252;18.838;2022-08-01T00:43:10;10.55;;;4.75;;
66595;SDS011;59017;49.252;18.838;2022-08-01T00:45:36;6.82;;;4.10;;
66595;SDS011;59017;49.252;18.838;2022-08-01T00:48:01;5.13;;;4.05;;
66595;SDS011;59017;49.252;18.838;2022-08-01T00:50:27;5.28;;;4.32;;
66595;SDS011;59017;49.252;18.838;2022-08-01T00:52:53;7.40;;;4.63;;
66595;SDS011;59017;49.252;18.838;2022-08-01T00:55:19;12.23;;;4.40;;
66595;SDS011;59017;49.252;18.838;2022-08-01T00:57:45;6.28;;;4.38;;
66595;SDS011;59017;49.252;18.838;2022-08-01T01:00:12;6.18;;;4.40;;
66595;SDS011;59017;49.252;18.838;2022-08-01T01:02:38;5.28;;;3.90;;
66595;SDS011;59017;49.252;18.838;2022-08-01T01:05:03;4.80;;;3.60;;
66595;SDS011;59017;49.252;18.838;2022-08-01T01:07:49;5.82;;;3.75;;
66595;SDS011;59017;49.252;18.838;2022-08-01T01:12:59;7.68;;;3.53;;
66595;SDS011;59017;49.252;18.838;2022-08-01T01:15:45;8.68;;;3.50;;
66595;SDS011;59017;49.252;18.838;2022-08-01T01:29:11;5.95;;;4.00;;
66595;SDS011;59017;49.252;18.838;2022-08-01T01:31:51;5.18;;;4.13;;
66595;SDS011;59017;49.252;18.838;2022-08-01T01:34:18;6.80;;;3.97;;
66595;SDS011;59017;49.252;18.838;2022-08-01T01:36:47;6.07;;;3.70;;
66595;SDS011;59017;49.252;18.838;2022-08-01T01:39:13;4.03;;;3.28;;
66595;SDS011;59017;49.252;18.838;2022-08-01T01:41:40;5.13;;;3.67;;
66595;SDS011;59017;49.252;18.838;2022-08-01T01:44:07;5.00;;;3.75;;
66595;SDS011;59017;49.252;18.838;2022-08-01T01:46:35;7.25;;;4.32;;
66595;SDS011;59017;49.252;18.838;2022-08-01T01:49:01;6.57;;;4.45;;
66595;SDS011;59017;49.252;18.838;2022-08-01T01:51:28;6.30;;;4.90;;
66595;SDS011;59017;49.252;18.838;2022-08-01T01:53:55;6.30;;;4.10;;
66595;SDS011;59017;49.252;18.838;2022-08-01T01:56:22;9.43;;;4.00;;
66595;SDS011;59017;49.252;18.838;2022-08-01T01:58:50;7.35;;;4.10;;
66595;SDS011;59017;49.252;18.838;2022-08-01T02:01:19;6.47;;;4.25;;
66595;SDS011;59017;49.252;18.838;2022-08-01T02:03:46;4.93;;;3.80;;
66595;SDS011;59017;49.252;18.838;2022-08-01T02:06:14;4.43;;;3.58;;
66595;SDS011;59017;49.252;18.838;2022-08-01T02:08:41;5.68;;;4.05;;
66595;SDS011;59017;49.252;18.838;2022-08-01T02:11:08;5.53;;;4.10;;
66595;SDS011;59017;49.252;18.838;2022-08-01T02:13:56;5.07;;;3.75;;
66595;SDS011;59017;49.252;18.838;2022-08-01T02:16:28;5.53;;;3.92;;
66595;SDS011;59017;49.252;18.838;2022-08-01T02:18:56;7.78;;;4.28;;
66595;SDS011;59017;49.252;18.838;2022-08-01T02:21:32;7.10;;;4.65;;
66595;SDS011;59017;49.252;18.838;2022-08-01T02:24:30;9.98;;;5.28;;
66595;SDS011;59017;49.252;18.838;2022-08-01T02:27:05;5.78;;;4.72;;
66595;SDS011;59017;49.252;18.838;2022-08-01T02:29:52;10.30;;;5.23;;
66595;SDS011;59017;49.252;18.838;2022-08-01T02:32:31;7.03;;;5.35;;
66595;SDS011;59017;49.252;18.838;2022-08-01T02:35:05;6.82;;;4.70;;
66595;SDS011;59017;49.252;18.838;2022-08-01T02:37:36;9.88;;;5.20;;
66595;SDS011;59017;49.252;18.838;2022-08-01T02:40:03;8.02;;;5.40;;
66595;SDS011;59017;49.252;18.838;2022-08-01T02:42:30;8.45;;;4.65;;
66595;SDS011;59017;49.252;18.838;2022-08-01T02:44:57;9.32;;;4.63;;
66595;SDS011;59017;49.252;18.838;2022-08-01T02:47:23;7.40;;;4.75;;
66595;SDS011;59017;49.252;18.838;2022-08-01T02:49:51;6.75;;;4.65;;
66595;SDS011;59017;49.252;18.838;2022-08-01T02:52:18;7.32;;;4.70;;
66595;SDS011;59017;49.252;18.838;2022-08-01T02:54:47;10.13;;;4.38;;
66595;SDS011;59017;49.252;18.838;2022-08-01T02:57:16;7.10;;;4.90;;
66595;SDS011;59017;49.252;18.838;2022-08-01T02:59:44;6.57;;;4.72;;
66595;SDS011;59017;49.252;18.838;2022-08-01T03:02:11;7.07;;;4.72;;
66595;SDS011;59017;49.252;18.838;2022-08-01T03:04:39;6.72;;;4.55;;
66595;SDS011;59017;49.252;18.838;2022-08-01T03:07:07;7.30;;;4.80;;
66595;SDS011;59017;49.252;18.838;2022-08-01T03:09:36;10.18;;;5.07;;
66595;SDS011;59017;49.252;18.838;2022-08-01T03:12:04;6.32;;;4.70;;
66595;SDS011;59017;49.252;18.838;2022-08-01T03:14:33;8.07;;;5.35;;
66595;SDS011;59017;49.252;18.838;2022-08-01T03:17:01;7.25;;;5.03;;
66595;SDS011;59017;49.252;18.838;2022-08-01T03:19:29;7.43;;;5.22;;
66595;SDS011;59017;49.252;18.838;2022-08-01T03:21:56;7.88;;;4.82;;
66595;SDS011;59017;49.252;18.838;2022-08-01T03:24:23;11.80;;;4.82;;
66595;SDS011;59017;49.252;18.838;2022-08-01T03:26:51;8.10;;;4.57;;
66595;SDS011;59017;49.252;18.838;2022-08-01T03:29:20;6.78;;;4.50;;
66595;SDS011;59017;49.252;18.838;2022-08-01T03:31:49;8.05;;;5.32;;
66595;SDS011;59017;49.252;18.838;2022-08-01T03:34:16;13.90;;;4.47;;
66595;SDS011;59017;49.252;18.838;2022-08-01T03:36:47;8.75;;;5.10;;
66595;SDS011;59017;49.252;18.838;2022-08-01T03:39:16;6.78;;;4.68;;
66595;SDS011;59017;49.252;18.838;2022-08-01T03:41:46;7.35;;;4.70;;
66595;SDS011;59017;49.252;18.838;2022-08-01T03:44:17;8.75;;;4.70;;
66595;SDS011;59017;49.252;18.838;2022-08-01T03:46:47;7.68;;;4.05;;
66595;SDS011;59017;49.252;18.838;2022-08-01T03:49:17;9.23;;;4.90;;
66595;SDS011;59017;49.252;18.838;2022-08-01T03:54:14;6.45;;;4.43;;
66595;SDS011;59017;49.252;18.838;2022-08-01T03:56:41;5.90;;;4.35;;
66595;SDS011;59017;49.252;18.838;2022-08-01T03:59:08;6.03;;;4.40;;
66595;SDS011;59017;49.252;18.838;2022-08-01T04:01:34;7.13;;;4.57;;
66595;SDS011;59017;49.252;18.838;2022-08-01T04:04:01;9.55;;;5.13;;
66595;SDS011;59017;49.252;18.838;2022-08-01T04:06:26;7.90;;;5.00;;
66595;SDS011;59017;49.252;18.838;2022-08-01T04:08:52;5.50;;;4.30;;
66595;SDS011;59017;49.252;18.838;2022-08-01T04:11:25;9.90;;;4.85;;
66595;SDS011;59017;49.252;18.838;2022-08-01T04:13:52;6.88;;;5.03;;
66595;SDS011;59017;49.252;18.838;2022-08-01T04:16:19;8.13;;;4.60;;
66595;SDS011;59017;49.252;18.838;2022-08-01T04:18:46;8.02;;;4.60;;
66595;SDS011;59017;49.252;18.838;2022-08-01T04:21:12;7.47;;;4.90;;
66595;SDS011;59017;49.252;18.838;2022-08-01T04:23:39;7.57;;;4.43;;
66595;SDS011;59017;49.252;18.838;2022-08-01T04:26:08;6.78;;;4.72;;
66595;SDS011;59017;49.252;18.838;2022-08-01T04:28:34;7.40;;;4.63;;
66595;SDS011;59017;49.252;18.838;2022-08-01T04:31:02;11.57;;;4.63;;
66595;SDS011;59017;49.252;18.838;2022-08-01T04:33:31;8.73;;;4.82;;
66595;SDS011;59017;49.252;18.838;2022-08-01T04:36:01;9.07;;;4.70;;
66595;SDS011;59017;49.252;18.838;2022-08-01T04:38:33;11.70;;;4.85;;
66595;SDS011;59017;49.252;18.838;2022-08-01T04:41:02;9.80;;;4.38;;
66595;SDS011;59017;49.252;18.838;2022-08-01T04:43:30;10.45;;;4.82;;
66595;SDS011;59017;49.252;18.838;2022-08-01T04:45:56;9.00;;;4.43;;
66595;SDS011;59017;49.252;18.838;2022-08-01T04:48:23;9.88;;;4.70;;
66595;SDS011;59017;49.252;18.838;2022-08-01T04:50:50;7.80;;;4.65;;
66595;SDS011;59017;49.252;18.838;2022-08-01T04:53:16;8.35;;;4.88;;
66595;SDS011;59017;49.252;18.838;2022-08-01T04:55:43;7.53;;;4.07;;
66595;SDS011;59017;49.252;18.838;2022-08-01T04:58:09;7.82;;;5.00;;
66595;SDS011;59017;49.252;18.838;2022-08-01T05:00:35;5.65;;;4.28;;
66595;SDS011;59017;49.252;18.838;2022-08-01T05:03:01;6.68;;;4.30;;
66595;SDS011;59017;49.252;18.838;2022-08-01T05:05:26;6.78;;;4.50;;
66595;SDS011;59017;49.252;18.838;2022-08-01T05:07:52;8.88;;;4.50;;
66595;SDS011;59017;49.252;18.838;2022-08-01T05:10:17;7.05;;;4.90;;
66595;SDS011;59017;49.252;18.838;2022-08-01T05:12:43;7.28;;;4.78;;
66595;SDS011;59017;49.252;18.838;2022-08-01T05:15:08;6.82;;;4.75;;
66595;SDS011;59017;49.252;18.838;2022-08-01T05:17:34;7.93;;;4.65;;
66595;SDS011;59017;49.252;18.838;2022-08-01T05:19:59;11.57;;;5.07;;
66595;SDS011;59017;49.252;18.838;2022-08-01T05:22:25;10.65;;;5.15;;
66595;SDS011;59017;49.252;18.838;2022-08-01T05:24:50;5.15;;;4.07;;
66595;SDS011;59017;49.252;18.838;2022-08-01T05:27:17;8.15;;;5.38;;
66595;SDS011;59017;49.252;18.838;2022-08-01T05:29:43;9.32;;;5.15;;
66595;SDS011;59017;49.252;18.838;2022-08-01T05:32:09;7.72;;;4.57;;
66595;SDS011;59017;49.252;18.838;2022-08-01T05:34:34;9.50;;;4.30;;
66595;SDS011;59017;49.252;18.838;2022-08-01T05:37:00;6.00;;;3.95;;
66595;SDS011;59017;49.252;18.838;2022-08-01T05:39:25;6.88;;;4.35;;
66595;SDS011;59017;49.252;18.838;2022-08-01T05:41:51;8.07;;;4.45;;
66595;SDS011;59017;49.252;18.838;2022-08-01T05:44:16;6.90;;;4.72;;
66595;SDS011;59017;49.252;18.838;2022-08-01T05:46:42;6.38;;;4.35;;
66595;SDS011;59017;49.252;18.838;2022-08-01T05:49:08;7.40;;;4.20;;
66595;SDS011;59017;49.252;18.838;2022-08-01T05:51:33;6.22;;;4.43;;
66595;SDS011;59017;49.252;18.838;2022-08-01T05:53:59;6.30;;;4.40;;
66595;SDS011;59017;49.252;18.838;2022-08-01T05:56:24;6.57;;;3.72;;
66595;SDS011;59017;49.252;18.838;2022-08-01T05:58:50;6.60;;;4.00;;
66595;SDS011;59017;49.252;18.838;2022-08-01T06:01:16;18.42;;;3.90;;
66595;SDS011;59017;49.252;18.838;2022-08-01T06:03:42;8.35;;;3.88;;
66595;SDS011;59017;49.252;18.838;2022-08-01T06:06:08;4.90;;;3.67;;
66595;SDS011;59017;49.252;18.838;2022-08-01T06:08:34;6.13;;;4.00;;
66595;SDS011;59017;49.252;18.838;2022-08-01T06:10:59;9.85;;;3.97;;
66595;SDS011;59017;49.252;18.838;2022-08-01T06:13:25;5.63;;;3.67;;
66595;SDS011;59017;49.252;18.838;2022-08-01T06:15:51;8.63;;;3.63;;
66595;SDS011;59017;49.252;18.838;2022-08-01T06:18:16;5.47;;;3.60;;
66595;SDS011;59017;49.252;18.838;2022-08-01T06:20:42;7.18;;;3.70;;
66595;SDS011;59017;49.252;18.838;2022-08-01T06:23:08;6.63;;;3.72;;
66595;SDS011;59017;49.252;18.838;2022-08-01T06:25:34;4.63;;;3.42;;
66595;SDS011;59017;49.252;18.838;2022-08-01T06:28:00;4.10;;;3.30;;
66595;SDS011;59017;49.252;18.838;2022-08-01T06:30:26;6.68;;;3.75;;
66595;SDS011;59017;49.252;18.838;2022-08-01T06:32:51;6.03;;;4.10;;
66595;SDS011;59017;49.252;18.838;2022-08-01T06:35:17;6.60;;;3.80;;
66595;SDS011;59017;49.252;18.838;2022-08-01T06:37:43;8.65;;;4.07;;
66595;SDS011;59017;49.252;18.838;2022-08-01T06:40:10;6.80;;;3.90;;
66595;SDS011;59017;49.252;18.838;2022-08-01T06:42:38;6.30;;;3.30;;
66595;SDS011;59017;49.252;18.838;2022-08-01T06:45:04;4.90;;;3.60;;
66595;SDS011;59017;49.252;18.838;2022-08-01T06:47:31;6.32;;;3.78;;
66595;SDS011;59017;49.252;18.838;2022-08-01T06:49:57;5.35;;;3.50;;
66595;SDS011;59017;49.252;18.838;2022-08-01T06:52:22;8.45;;;3.75;;
66595;SDS011;59017;49.252;18.838;2022-08-01T06:54:48;8.43;;;4.00;;
66595;SDS011;59017;49.252;18.838;2022-08-01T06:57:13;5.57;;;3.65;;
66595;SDS011;59017;49.252;18.838;2022-08-01T06:59:39;4.88;;;3.88;;
66595;SDS011;59017;49.252;18.838;2022-08-01T07:02:04;7.28;;;4.28;;
66595;SDS011;59017;49.252;18.838;2022-08-01T07:04:31;7.07;;;3.75;;
66595;SDS011;59017;49.252;18.838;2022-08-01T07:06:57;4.40;;;3.42;;
66595;SDS011;59017;49.252;18.838;2022-08-01T07:09:22;7.50;;;4.00;;
66595;SDS011;59017;49.252;18.838;2022-08-01T07:11:48;6.85;;;3.85;;
66595;SDS011;59017;49.252;18.838;2022-08-01T07:14:15;6.68;;;3.45;;
66595;SDS011;59017;49.252;18.838;2022-08-01T07:16:41;5.15;;;3.53;;
66595;SDS011;59017;49.252;18.838;2022-08-01T07:19:06;6.18;;;4.03;;
66595;SDS011;59017;49.252;18.838;2022-08-01T07:21:32;6.70;;;3.60;;
66595;SDS011;59017;49.252;18.838;2022-08-01T07:23:58;8.93;;;3.08;;
66595;SDS011;59017;49.252;18.838;2022-08-01T07:26:24;4.30;;;3.17;;
66595;SDS011;59017;49.252;18.838;2022-08-01T07:28:49;6.43;;;3.47;;
66595;SDS011;59017;49.252;18.838;2022-08-01T07:31:15;4.68;;;3.47;;
66595;SDS011;59017;49.252;18.838;2022-08-01T07:33:40;6.05;;;3.00;;
66595;SDS011;59017;49.252;18.838;2022-08-01T07:36:06;5.93;;;3.38;;
66595;SDS011;59017;49.252;18.838;2022-08-01T07:38:31;7.43;;;3.47;;
66595;SDS011;59017;49.252;18.838;2022-08-01T07:40:57;11.43;;;4.05;;
66595;SDS011;59017;49.252;18.838;2022-08-01T07:43:22;12.48;;;3.83;;
66595;SDS011;59017;49.252;18.838;2022-08-01T07:45:48;8.18;;;4.05;;
66595;SDS011;59017;49.252;18.838;2022-08-01T07:48:13;6.60;;;3.88;;
66595;SDS011;59017;49.252;18.838;2022-08-01T07:50:39;10.68;;;3.83;;
66595;SDS011;59017;49.252;18.838;2022-08-01T07:53:04;11.18;;;4.10;;
66595;SDS011;59017;49.252;18.838;2022-08-01T07:55:30;6.10;;;4.07;;
66595;SDS011;59017;49.252;18.838;2022-08-01T07:57:56;7.68;;;3.83;;
66595;SDS011;59017;49.252;18.838;2022-08-01T08:00:21;5.43;;;3.10;;
66595;SDS011;59017;49.252;18.838;2022-08-01T08:02:47;16.27;;;3.80;;
66595;SDS011;59017;49.252;18.838;2022-08-01T08:05:12;6.78;;;3.53;;
66595;SDS011;59017;49.252;18.838;2022-08-01T08:07:38;6.95;;;3.60;;
66595;SDS011;59017;49.252;18.838;2022-08-01T08:10:04;4.97;;;3.33;;
66595;SDS011;59017;49.252;18.838;2022-08-01T08:12:30;7.75;;;3.53;;
66595;SDS011;59017;49.252;18.838;2022-08-01T08:14:57;8.45;;;3.70;;
66595;SDS011;59017;49.252;18.838;2022-08-01T08:17:26;7.15;;;3.50;;
66595;SDS011;59017;49.252;18.838;2022-08-01T08:19:52;7.22;;;3.47;;
66595;SDS011;59017;49.252;18.838;2022-08-01T08:22:18;6.18;;;3.03;;
66595;SDS011;59017;49.252;18.838;2022-08-01T08:24:43;7.38;;;3.20;;
66595;SDS011;59017;49.252;18.838;2022-08-01T08:27:09;4.97;;;2.83;;
66595;SDS011;59017;49.252;18.838;2022-08-01T08:29:34;6.30;;;3.33;;
66595;SDS011;59017;49.252;18.838;2022-08-01T08:32:00;5.85;;;3.05;;
66595;SDS011;59017;49.252;18.838;2022-08-01T08:34:26;4.38;;;2.88;;
66595;SDS011;59017;49.252;18.838;2022-08-01T08:36:53;4.60;;;3.50;;
66595;SDS011;59017;49.252;18.838;2022-08-01T08:39:20;5.72;;;3.60;;
66595;SDS011;59017;49.252;18.838;2022-08-01T08:41:45;5.82;;;4.10;;
66595;SDS011;59017;49.252;18.838;2022-08-01T08:44:12;6.28;;;3.92;;
66595;SDS011;59017;49.252;18.838;2022-08-01T08:46:41;6.40;;;3.53;;
66595;SDS011;59017;49.252;18.838;2022-08-01T08:49:09;6.72;;;3.80;;
66595;SDS011;59017;49.252;18.838;2022-08-01T08:51:38;6.80;;;3.15;;
66595;SDS011;59017;49.252;18.838;2022-08-01T08:54:05;5.22;;;3.50;;
66595;SDS011;59017;49.252;18.838;2022-08-01T08:56:32;4.90;;;3.20;;
66595;SDS011;59017;49.252;18.838;2022-08-01T08:59:00;4.97;;;3.38;;
66595;SDS011;59017;49.252;18.838;2022-08-01T09:01:27;5.38;;;3.80;;
66595;SDS011;59017;49.252;18.838;2022-08-01T09:03:53;8.85;;;4.40;;
66595;SDS011;59017;49.252;18.838;2022-08-01T09:06:19;8.48;;;4.18;;
66595;SDS011;59017;49.252;18.838;2022-08-01T09:08:45;8.80;;;4.32;;
66595;SDS011;59017;49.252;18.838;2022-08-01T09:11:11;9.82;;;5.28;;
66595;SDS011;59017;49.252;18.838;2022-08-01T09:13:36;9.82;;;4.35;;
66595;SDS011;59017;49.252;18.838;2022-08-01T09:16:02;8.55;;;4.82;;
66595;SDS011;59017;49.252;18.838;2022-08-01T09:21:08;9.15;;;4.18;;
66595;SDS011;59017;49.252;18.838;2022-08-01T09:23:36;6.68;;;3.72;;
66595;SDS011;59017;49.252;18.838;2022-08-01T09:26:07;6.30;;;4.05;;
66595;SDS011;59017;49.252;18.838;2022-08-01T09:28:34;7.82;;;4.00;;
66595;SDS011;59017;49.252;18.838;2022-08-01T09:31:05;7.13;;;3.78;;
66595;SDS011;59017;49.252;18.838;2022-08-01T09:36:18;5.40;;;3.75;;
66595;SDS011;59017;49.252;18.838;2022-08-01T09:38:45;7.80;;;3.67;;
66595;SDS011;59017;49.252;18.838;2022-08-01T09:41:10;12.90;;;3.80;;
66595;SDS011;59017;49.252;18.838;2022-08-01T09:43:36;7.38;;;3.95;;
66595;SDS011;59017;49.252;18.838;2022-08-01T09:46:09;8.65;;;3.70;;
66595;SDS011;59017;49.252;18.838;2022-08-01T09:49:01;8.30;;;3.45;;
66595;SDS011;59017;49.252;18.838;2022-08-01T09:51:33;5.97;;;3.70;;
66595;SDS011;59017;49.252;18.838;2022-08-01T09:54:02;5.35;;;3.50;;
66595;SDS011;59017;49.252;18.838;2022-08-01T09:59:04;7.45;;;3.70;;
66595;SDS011;59017;49.252;18.838;2022-08-01T10:01:44;8.63;;;3.25;;
66595;SDS011;59017;49.252;18.838;2022-08-01T10:04:12;6.97;;;3.40;;
66595;SDS011;59017;49.252;18.838;2022-08-01T10:06:43;5.13;;;3.28;;
66595;SDS011;59017;49.252;18.838;2022-08-01T10:09:11;5.28;;;3.45;;
66595;SDS011;59017;49.252;18.838;2022-08-01T10:11:39;5.68;;;3.53;;
66595;SDS011;59017;49.252;18.838;2022-08-01T10:14:08;8.13;;;3.60;;
66595;SDS011;59017;49.252;18.838;2022-08-01T10:16:35;6.80;;;3.30;;
66595;SDS011;59017;49.252;18.838;2022-08-01T10:19:03;5.38;;;3.13;;
66595;SDS011;59017;49.252;18.838;2022-08-01T10:21:32;5.57;;;3.47;;
66595;SDS011;59017;49.252;18.838;2022-08-01T10:24:01;8.45;;;3.20;;
66595;SDS011;59017;49.252;18.838;2022-08-01T10:26:29;6.85;;;3.30;;
66595;SDS011;59017;49.252;18.838;2022-08-01T10:28:58;6.03;;;3.03;;
66595;SDS011;59017;49.252;18.838;2022-08-01T10:31:24;10.43;;;3.55;;
66595;SDS011;59017;49.252;18.838;2022-08-01T10:33:50;7.30;;;3.03;;
66595;SDS011;59017;49.252;18.838;2022-08-01T10:36:17;8.82;;;3.03;;
66595;SDS011;59017;49.252;18.838;2022-08-01T10:38:45;5.10;;;2.72;;
66595;SDS011;59017;49.252;18.838;2022-08-01T10:41:11;5.40;;;3.20;;
66595;SDS011;59017;49.252;18.838;2022-08-01T10:43:40;4.78;;;2.55;;
66595;SDS011;59017;49.252;18.838;2022-08-01T10:46:06;5.40;;;2.70;;
66595;SDS011;59017;49.252;18.838;2022-08-01T10:51:25;4.78;;;3.00;;
66595;SDS011;59017;49.252;18.838;2022-08-01T10:53:52;7.28;;;3.08;;
66595;SDS011;59017;49.252;18.838;2022-08-01T10:56:19;8.10;;;3.00;;
66595;SDS011;59017;49.252;18.838;2022-08-01T10:58:47;3.63;;;2.47;;
66595;SDS011;59017;49.252;18.838;2022-08-01T11:01:23;6.22;;;3.17;;
66595;SDS011;59017;49.252;18.838;2022-08-01T11:06:40;8.88;;;2.90;;
66595;SDS011;59017;49.252;18.838;2022-08-01T11:22:30;6.20;;;3.30;;
66595;SDS011;59017;49.252;18.838;2022-08-01T11:24:56;5.32;;;3.13;;
66595;SDS011;59017;49.252;18.838;2022-08-01T11:27:29;7.28;;;3.30;;
66595;SDS011;59017;49.252;18.838;2022-08-01T11:32:33;4.53;;;3.00;;
66595;SDS011;59017;49.252;18.838;2022-08-01T11:35:20;5.18;;;2.88;;
66595;SDS011;59017;49.252;18.838;2022-08-01T11:37:48;6.30;;;3.38;;
66595;SDS011;59017;49.252;18.838;2022-08-01T11:42:49;6.03;;;3.25;;
66595;SDS011;59017;49.252;18.838;2022-08-01T11:45:15;5.43;;;2.95;;
66595;SDS011;59017;49.252;18.838;2022-08-01T11:47:50;5.80;;;3.45;;
66595;SDS011;59017;49.252;18.838;2022-08-01T11:53:02;3.60;;;2.83;;
66595;SDS011;59017;49.252;18.838;2022-08-01T11:55:29;7.05;;;3.30;;
66595;SDS011;59017;49.252;18.838;2022-08-01T11:58:02;4.03;;;2.88;;
66595;SDS011;59017;49.252;18.838;2022-08-01T12:00:32;5.95;;;3.13;;
66595;SDS011;59017;49.252;18.838;2022-08-01T12:03:00;3.80;;;3.10;;
66595;SDS011;59017;49.252;18.838;2022-08-01T12:05:31;4.93;;;2.90;;
66595;SDS011;59017;49.252;18.838;2022-08-01T12:07:59;5.38;;;3.20;;
66595;SDS011;59017;49.252;18.838;2022-08-01T12:10:26;5.38;;;3.00;;
66595;SDS011;59017;49.252;18.838;2022-08-01T12:15:28;5.80;;;3.28;;
66595;SDS011;59017;49.252;18.838;2022-08-01T12:17:56;7.82;;;3.03;;
66595;SDS011;59017;49.252;18.838;2022-08-01T12:20:23;8.70;;;3.03;;
66595;SDS011;59017;49.252;18.838;2022-08-01T12:22:53;5.57;;;3.20;;
66595;SDS011;59017;49.252;18.838;2022-08-01T12:25:20;6.70;;;3.58;;
66595;SDS011;59017;49.252;18.838;2022-08-01T12:27:46;6.25;;;3.33;;
66595;SDS011;59017;49.252;18.838;2022-08-01T12:30:13;5.75;;;3.10;;
66595;SDS011;59017;49.252;18.838;2022-08-01T12:32:44;5.05;;;3.38;;
66595;SDS011;59017;49.252;18.838;2022-08-01T12:35:12;6.32;;;3.20;;
66595;SDS011;59017;49.252;18.838;2022-08-01T12:37:40;5.32;;;3.60;;
66595;SDS011;59017;49.252;18.838;2022-08-01T12:42:53;6.82;;;3.30;;
66595;SDS011;59017;49.252;18.838;2022-08-01T12:45:21;3.85;;;3.10;;
66595;SDS011;59017;49.252;18.838;2022-08-01T12:47:52;9.68;;;3.50;;
66595;SDS011;59017;49.252;18.838;2022-08-01T12:50:19;6.30;;;3.38;;
66595;SDS011;59017;49.252;18.838;2022-08-01T12:52:47;4.22;;;3.30;;
66595;SDS011;59017;49.252;18.838;2022-08-01T12:55:14;4.10;;;3.13;;
66595;SDS011;59017;49.252;18.838;2022-08-01T12:57:45;4.85;;;3.47;;
66595;SDS011;59017;49.252;18.838;2022-08-01T13:02:44;6.25;;;3.50;;
66595;SDS011;59017;49.252;18.838;2022-08-01T13:05:11;4.60;;;3.25;;
66595;SDS011;59017;49.252;18.838;2022-08-01T13:10:11;4.22;;;3.00;;
66595;SDS011;59017;49.252;18.838;2022-08-01T13:12:38;3.97;;;3.10;;
66595;SDS011;59017;49.252;18.838;2022-08-01T13:17:43;8.38;;;3.17;;
66595;SDS011;59017;49.252;18.838;2022-08-01T13:20:09;5.25;;;3.10;;
66595;SDS011;59017;49.252;18.838;2022-08-01T13:22:35;5.05;;;3.30;;
66595;SDS011;59017;49.252;18.838;2022-08-01T13:25:14;7.45;;;2.90;;
66595;SDS011;59017;49.252;18.838;2022-08-01T13:27:41;4.10;;;3.38;;
66595;SDS011;59017;49.252;18.838;2022-08-01T13:30:11;6.70;;;2.90;;
66595;SDS011;59017;49.252;18.838;2022-08-01T13:32:37;5.57;;;3.33;;
66595;SDS011;59017;49.252;18.838;2022-08-01T13:35:04;3.95;;;3.10;;
66595;SDS011;59017;49.252;18.838;2022-08-01T13:37:33;6.10;;;3.80;;
66595;SDS011;59017;49.252;18.838;2022-08-01T13:39:58;7.47;;;3.40;;
66595;SDS011;59017;49.252;18.838;2022-08-01T13:42:24;6.53;;;3.42;;
66595;SDS011;59017;49.252;18.838;2022-08-01T13:44:50;5.85;;;3.67;;
66595;SDS011;59017;49.252;18.838;2022-08-01T13:47:15;3.63;;;3.25;;
66595;SDS011;59017;49.252;18.838;2022-08-01T13:49:41;4.47;;;3.28;;
66595;SDS011;59017;49.252;18.838;2022-08-01T13:52:06;4.38;;;3.38;;
66595;SDS011;59017;49.252;18.838;2022-08-01T13:54:32;4.20;;;3.53;;
66595;SDS011;59017;49.252;18.838;2022-08-01T13:56:58;5.13;;;2.85;;
66595;SDS011;59017;49.252;18.838;2022-08-01T13:59:24;10.43;;;3.47;;
66595;SDS011;59017;49.252;18.838;2022-08-01T14:01:49;5.47;;;3.17;;
66595;SDS011;59017;49.252;18.838;2022-08-01T14:04:15;4.10;;;3.08;;
66595;SDS011;59017;49.252;18.838;2022-08-01T14:06:40;6.10;;;3.28;;
66595;SDS011;59017;49.252;18.838;2022-08-01T14:09:06;3.97;;;3.10;;
66595;SDS011;59017;49.252;18.838;2022-08-01T14:11:31;4.35;;;3.20;;
66595;SDS011;59017;49.252;18.838;2022-08-01T14:13:57;4.80;;;2.95;;
66595;SDS011;59017;49.252;18.838;2022-08-01T14:16:23;7.50;;;3.47;;
66595;SDS011;59017;49.252;18.838;2022-08-01T14:18:48;4.65;;;3.25;;
66595;SDS011;59017;49.252;18.838;2022-08-01T14:21:14;7.15;;;3.60;;
66595;SDS011;59017;49.252;18.838;2022-08-01T14:23:40;4.30;;;3.47;;
66595;SDS011;59017;49.252;18.838;2022-08-01T14:26:07;4.45;;;3.40;;
66595;SDS011;59017;49.252;18.838;2022-08-01T14:28:33;5.45;;;3.17;;
66595;SDS011;59017;49.252;18.838;2022-08-01T14:30:59;6.53;;;3.22;;
66595;SDS011;59017;49.252;18.838;2022-08-01T14:33:25;4.15;;;3.00;;
66595;SDS011;59017;49.252;18.838;2022-08-01T14:35:51;8.43;;;3.30;;
66595;SDS011;59017;49.252;18.838;2022-08-01T14:38:17;4.03;;;3.47;;
66595;SDS011;59017;49.252;18.838;2022-08-01T14:40:42;6.28;;;3.50;;
66595;SDS011;59017;49.252;18.838;2022-08-01T14:43:08;5.20;;;3.30;;
66595;SDS011;59017;49.252;18.838;2022-08-01T14:45:34;4.35;;;3.40;;
66595;SDS011;59017;49.252;18.838;2022-08-01T14:47:59;6.97;;;3.30;;
66595;SDS011;59017;49.252;18.838;2022-08-01T14:50:25;6.22;;;3.30;;
66595;SDS011;59017;49.252;18.838;2022-08-01T14:52:53;7.88;;;3.38;;
66595;SDS011;59017;49.252;18.838;2022-08-01T14:55:19;4.28;;;3.45;;
66595;SDS011;59017;49.252;18.838;2022-08-01T14:57:48;8.05;;;3.97;;
66595;SDS011;59017;49.252;18.838;2022-08-01T15:00:14;12.98;;;4.45;;
66595;SDS011;59017;49.252;18.838;2022-08-01T15:02:40;7.65;;;4.57;;
66595;SDS011;59017;49.252;18.838;2022-08-01T15:05:07;8.05;;;4.35;;
66595;SDS011;59017;49.252;18.838;2022-08-01T15:07:33;10.38;;;4.72;;
66595;SDS011;59017;49.252;18.838;2022-08-01T15:09:59;7.20;;;4.63;;
66595;SDS011;59017;49.252;18.838;2022-08-01T15:12:24;5.05;;;3.80;;
66595;SDS011;59017;49.252;18.838;2022-08-01T15:14:50;9.50;;;4.53;;
66595;SDS011;59017;49.252;18.838;2022-08-01T15:17:20;6.07;;;4.22;;
66595;SDS011;59017;49.252;18.838;2022-08-01T15:19:47;5.18;;;4.00;;
66595;SDS011;59017;49.252;18.838;2022-08-01T15:22:14;9.98;;;4.20;;
66595;SDS011;59017;49.252;18.838;2022-08-01T15:24:40;8.65;;;4.38;;
66595;SDS011;59017;49.252;18.838;2022-08-01T15:27:06;8.77;;;4.43;;
66595;SDS011;59017;49.252;18.838;2022-08-01T15:29:32;7.47;;;4.68;;
66595;SDS011;59017;49.252;18.838;2022-08-01T15:31:59;9.48;;;4.78;;
66595;SDS011;59017;49.252;18.838;2022-08-01T15:34:25;6.82;;;4.60;;
66595;SDS011;59017;49.252;18.838;2022-08-01T15:36:51;9.48;;;4.90;;
66595;SDS011;59017;49.252;18.838;2022-08-01T15:39:16;5.93;;;4.95;;